Nottely Observed Data For Previous 48 Hours

Caption
Day and Hour Reservoir Elevation (behind dam)* Tailwater Elevation (below dam)* Average Hourly Discharge*
5/20/2018 2 AM EDT 1,776.43 1,607.18 65
5/20/2018 3 AM EDT 1,776.43 1,607.18 65
5/20/2018 4 AM EDT 1,776.44 1,607.18 65
5/20/2018 5 AM EDT 1,776.44 1,607.18 65
5/20/2018 6 AM EDT 1,776.45 1,607.18 65
5/20/2018 7 AM EDT 1,776.46 1,607.18 65
5/20/2018 8 AM EDT 1,776.46 1,607.18 65
5/20/2018 9 AM EDT 1,776.47 1,607.18 65
5/20/2018 10 AM EDT 1,776.47 1,607.18 65
5/20/2018 11 AM EDT 1,776.48 1,607.18 65
5/20/2018 12 PM EDT 1,776.48 1,607.18 65
5/20/2018 1 PM EDT 1,776.49 1,607.18 65
5/20/2018 2 PM EDT 1,776.49 1,607.18 65
5/20/2018 3 PM EDT 1,776.51 1,607.18 65
5/20/2018 4 PM EDT 1,776.53 1,610.99 192
5/20/2018 5 PM EDT 1,776.49 1,611.26 1,399
5/20/2018 6 PM EDT 1,776.49 1,611.20 1,397
5/20/2018 7 PM EDT 1,776.45 1,611.25 1,398
5/20/2018 8 PM EDT 1,776.47 1,607.18 163
5/20/2018 9 PM EDT 1,776.47 1,607.18 65
5/20/2018 10 PM EDT 1,776.47 1,607.18 65
5/20/2018 11 PM EDT 1,776.49 1,607.18 65
5/21/2018 12 AM EDT 1,776.50 1,607.18 65
5/21/2018 1 AM EDT 1,776.51 1,607.18 65
5/21/2018 2 AM EDT 1,776.51 1,607.18 65
5/21/2018 3 AM EDT 1,776.52 1,607.18 65
5/21/2018 4 AM EDT 1,776.53 1,607.18 65
5/21/2018 5 AM EDT 1,776.53 1,607.18 65
5/21/2018 6 AM EDT 1,776.53 1,607.18 65
5/21/2018 7 AM EDT 1,776.55 1,607.18 65
5/21/2018 8 AM EDT 1,776.55 1,607.18 65
5/21/2018 9 AM EDT 1,776.56 1,607.18 65
5/21/2018 10 AM EDT 1,776.56 1,607.18 65
5/21/2018 11 AM EDT 1,776.57 1,607.18 65
5/21/2018 12 PM EDT 1,776.57 1,607.18 65
5/21/2018 1 PM EDT 1,776.58 1,607.18 65
5/21/2018 2 PM EDT 1,776.58 1,607.18 65
5/21/2018 3 PM EDT 1,776.58 1,610.92 169
5/21/2018 4 PM EDT 1,776.57 1,611.24 1,400
5/21/2018 5 PM EDT 1,776.55 1,611.18 1,405
5/21/2018 6 PM EDT 1,776.52 1,611.19 1,403
5/21/2018 7 PM EDT 1,776.51 1,611.23 1,402
5/21/2018 8 PM EDT 1,776.51 1,607.18 181
5/21/2018 9 PM EDT 1,776.51 1,607.18 65
5/21/2018 10 PM EDT 1,776.52 1,607.18 65
5/21/2018 11 PM EDT 1,776.52 1,607.18 65
5/22/2018 12 AM EDT 1,776.53 1,607.18 65
5/22/2018 1 AM EDT 1,776.53 1,607.18 65
5/22/2018 2 AM EDT 1,776.54 1,607.18 65
5/22/2018 3 AM EDT 1,776.54 1,607.18 65
5/22/2018 4 AM EDT 1,776.55 1,607.18 65
5/22/2018 5 AM EDT 1,776.55 1,607.18 65
5/22/2018 6 AM EDT 1,776.56 1,607.19 65
5/22/2018 7 AM EDT 1,776.56 1,607.19 65
5/22/2018 8 AM EDT 1,776.56 1,607.18 65
5/22/2018 9 AM EDT 1,776.57 1,607.19 65

Elevations are in feet above sea level. Discharges are in cubic feet per second and are reported at the end of the hour.